Grizzly Air Cargo 5118


PABR
Wiley Post-Will Rogers Memorial Airport
Barrow, Alaska, US
PAFA
Fairbanks International Airport
Fairbanks, Alaska, US

Activity Log

Date Flight Route Aircraft Duration
12/11/2019 GRZ5118 BRW J515 BTT FAI B738 1h 26m
11/19/2019 GRZ5118 BRW J515 BTT FAI B738 1h 28m
09/18/2019 GRZ508 BRW J515 BTT FAI B722 1h 15m
09/17/2019 GRZ508 BRW J515 BTT FAI B722 1h 16m
09/16/2019 GRZ508 BRW J515 BTT FAI B722 1h 14m
09/11/2019 GRZ508 BRW J515 BTT FAI B722 1h 19m
09/09/2019 GRZ508 BRW J515 BTT FAI B722 1h 20m
09/09/2019 GRZ508 BRW J515 BTT FAI B722 1h 37m
09/07/2019 GRZ508 BRW J515 BTT FAI B722 1h 23m
08/30/2019 GRZ508 BRW J515 BTT FAI B722 1h 23m
07/09/2019 GRZ508 BRW J515 BTT FAI B722 1h 39m
07/02/2019 GRZ508 BRW J515 BTT FAI B722 1h 26m
06/30/2019 GRZ508 BRW J515 BTT FAI B722 1h 15m
06/27/2019 GRZ508 BRW J515 BTT FAI B722 1h 08m
06/27/2019 GRZ508 BRW J515 BTT FAI B722 1h 15m
06/26/2019 GRZ508 BRW J515 BTT FAI B722 1h 04m
06/26/2019 GRZ508 BRW J515 BTT FAI B722 1h 03m
06/25/2019 GRZ508 BRW J515 BTT FAI B722 1h 18m
04/15/2019 GRZ508 BRW J515 BTT FAI B722 1h 20m
03/21/2019 GRZ508 BRW J515 BTT FAI B722 1h 51m

Route Details

Aircraft Information
Primary: Boeing 727-200F
Backup: Boeing 737-800BCF
Route Data
Distance: 502nm
Sched. Duration: 1h 35m
Avg. Duration: 1h 21m (-13m)
Times Flown: 20
Recm'd Route: BRW J515 BTT FAI
Planned Altitude: 37,000ft
Origin Wx: PABR 060740Z AUTO 10010KT 1 3/4SM R07/5500VP6000FT BR OVC003 M01/M02 A3006 RMK AO2 I1000 T10061017 TSNO
Dest. Wx: PAFA 060653Z 01011KT 10SM FEW060 SCT095 BKN120 BKN200 16/04 A2982 RMK AO2 SLP101 VIRGA CB DSNT W-N MOV SW T01610039
Notes:

Financial History
Total Freight: 741,142lbs
Average Load: 37,057lbs/flt
Fuel Used: 188,329lbs
Avg. Fuel Used: 9,416lbs/flt
Fuel Expense: $165,730
Avg. Fuel Expense: $8,286
Avg. Fuel Cost: $0.88/lbs
Total Gross Income: $2,203,159
Pilot Pay: $4,510
Total Expenses: $238,981
Total Revenue: $1,791,966
Average Revenue: $110,157.96